Time;durP1;ratioP1;P1;durP2;ratioP2;P2;SDS_P1;SDS_P2;PMS_P1;PMS_P2;Temp;Humidity;BMP_temperature;BMP_pressure;BME280_temperature;BME280_humidity;BME280_pressure;Samples;Min_cycle;Max_cycle;Signal;HPM_P1;HPM_P2
2021/09/02 00:00:43;;;;;;;;;15.00;12.25;;;;;;;;4939899;28;46980;-91
2021/09/02 00:03:08;;;;;;;;;10.75;10.25;;;;;;;;4939601;28;46919;-92
2021/09/02 00:05:34;;;;;;;;;14.25;11.00;;;;;;;;4943916;28;46932;-92
2021/09/02 00:07:59;;;;;;;;;13.75;13.25;;;;;;;;4938643;28;47177;-91
2021/09/02 00:10:25;;;;;;;;;9.50;8.75;;;;;;;;4939306;28;46951;-90
2021/09/02 00:12:50;;;;;;;;;12.75;11.50;;;;;;;;4945921;28;47934;-92
2021/09/02 00:15:16;;;;;;;;;12.25;10.50;;;;;;;;4939897;28;47165;-92
2021/09/02 00:17:41;;;;;;;;;7.25;5.50;;;;;;;;4941572;28;47353;-93
2021/09/02 00:20:07;;;;;;;;;13.00;9.00;;;;;;;;4935833;28;49130;-94
2021/09/02 00:22:32;;;;;;;;;12.75;10.75;;;;;;;;4942448;28;47101;-93
2021/09/02 00:24:57;;;;;;;;;9.25;8.00;;;;;;;;4932134;28;47058;-93
2021/09/02 00:27:23;;;;;;;;;12.75;10.25;;;;;;;;4939438;28;47561;-92
2021/09/02 00:29:49;;;;;;;;;16.50;12.75;;;;;;;;4946665;28;47844;-89
2021/09/02 00:32:15;;;;;;;;;10.75;10.50;;;;;;;;4942830;28;46844;-90
2021/09/02 00:34:41;;;;;;;;;13.75;12.50;;;;;;;;4949218;28;46828;-90
2021/09/02 00:37:06;;;;;;;;;11.25;10.50;;;;;;;;4943001;28;47224;-91
2021/09/02 00:39:31;;;;;;;;;7.00;7.00;;;;;;;;4942684;28;47826;-90
2021/09/02 00:41:57;;;;;;;;;12.00;9.75;;;;;;;;4939713;28;47004;-88
2021/09/02 00:44:32;;;;;;;;;12.50;9.75;;;;;;;;4938643;28;47010;-88
2021/09/02 00:46:58;;;;;;;;;13.00;10.75;;;;;;;;4942308;28;47174;-88
2021/09/02 00:49:23;;;;;;;;;10.50;9.50;;;;;;;;4940601;28;48118;-88
2021/09/02 00:51:48;;;;;;;;;15.75;11.25;;;;;;;;4942258;28;47178;-88
2021/09/02 00:54:14;;;;;;;;;12.75;10.75;;;;;;;;4942728;28;46969;-89
2021/09/02 00:56:39;;;;;;;;;13.75;10.00;;;;;;;;4940674;28;47161;-88
2021/09/02 00:59:04;;;;;;;;;15.50;13.00;;;;;;;;4941681;28;47893;-89
2021/09/02 01:01:30;;;;;;;;;13.25;11.75;;;;;;;;4941947;28;47031;-88
2021/09/02 01:03:55;;;;;;;;;8.50;7.50;;;;;;;;4942108;28;47079;-89
2021/09/02 01:06:21;;;;;;;;;10.25;8.25;;;;;;;;4940765;28;47356;-88
2021/09/02 01:08:48;;;;;;;;;13.25;11.75;;;;;;;;4942027;28;46938;-89
2021/09/02 01:11:14;;;;;;;;;13.25;10.75;;;;;;;;4941977;28;47214;-90
2021/09/02 01:13:39;;;;;;;;;6.00;5.00;;;;;;;;4942276;28;46753;-89
2021/09/02 01:16:05;;;;;;;;;16.00;14.50;;;;;;;;4942339;28;47018;-88
2021/09/02 01:18:30;;;;;;;;;13.00;10.00;;;;;;;;4958564;28;47837;-88
2021/09/02 01:20:56;;;;;;;;;7.00;6.00;;;;;;;;4953773;28;48162;-89
2021/09/02 01:23:22;;;;;;;;;16.50;11.00;;;;;;;;4941743;28;46984;-89
2021/09/02 01:25:48;;;;;;;;;13.50;11.50;;;;;;;;4941927;28;46808;-89
2021/09/02 01:28:13;;;;;;;;;12.25;10.75;;;;;;;;4941549;28;46950;-89
2021/09/02 01:30:40;;;;;;;;;10.50;9.75;;;;;;;;4941736;28;47203;-89
2021/09/02 01:33:09;;;;;;;;;8.25;8.00;;;;;;;;4944942;28;47008;-89
2021/09/02 01:35:35;;;;;;;;;12.25;11.00;;;;;;;;4945581;28;47018;-87
2021/09/02 01:38:05;;;;;;;;;10.25;9.00;;;;;;;;4942018;28;46984;-90
2021/09/02 01:40:32;;;;;;;;;13.00;12.50;;;;;;;;4942161;28;46978;-94
2021/09/02 01:42:58;;;;;;;;;12.50;9.00;;;;;;;;4938864;28;46967;-95
2021/09/02 01:45:23;;;;;;;;;16.50;13.00;;;;;;;;4931075;28;46864;-93
2021/09/02 01:47:49;;;;;;;;;11.00;11.00;;;;;;;;4940478;28;46932;-92
2021/09/02 01:50:19;;;;;;;;;18.75;15.25;;;;;;;;4941488;28;46867;-89
2021/09/02 01:52:45;;;;;;;;;14.25;12.75;;;;;;;;4940378;28;46901;-92
2021/09/02 01:55:11;;;;;;;;;14.00;12.50;;;;;;;;4927517;28;46909;-91
2021/09/02 01:57:37;;;;;;;;;10.00;9.25;;;;;;;;4941465;28;47631;-90
2021/09/02 02:00:04;;;;;;;;;17.50;12.50;;;;;;;;4940874;28;47483;-90
2021/09/02 02:02:29;;;;;;;;;11.50;10.25;;;;;;;;4941127;28;46886;-92
2021/09/02 02:04:54;;;;;;;;;18.50;13.50;;;;;;;;4940295;28;46983;-92
2021/09/02 02:07:20;;;;;;;;;13.75;11.50;;;;;;;;4928622;28;47900;-92
2021/09/02 02:09:45;;;;;;;;;18.50;12.25;;;;;;;;4941594;28;47134;-92
2021/09/02 02:12:10;;;;;;;;;16.00;13.00;;;;;;;;4939747;28;46991;-90
2021/09/02 02:14:36;;;;;;;;;19.50;12.25;;;;;;;;4941459;28;47233;-91
2021/09/02 02:17:02;;;;;;;;;15.75;14.75;;;;;;;;4941287;28;47737;-92
2021/09/02 02:19:27;;;;;;;;;12.50;12.00;;;;;;;;4938637;28;46982;-91
2021/09/02 02:21:52;;;;;;;;;17.00;14.00;;;;;;;;4938067;28;47031;-91
2021/09/02 02:24:18;;;;;;;;;13.00;11.75;;;;;;;;4939622;28;47343;-90
2021/09/02 02:26:43;;;;;;;;;18.00;14.00;;;;;;;;4940601;28;46909;-91
2021/09/02 02:29:08;;;;;;;;;15.75;13.75;;;;;;;;4939753;28;47140;-92
2021/09/02 02:31:34;;;;;;;;;18.00;16.00;;;;;;;;4941609;28;47010;-90
2021/09/02 02:33:59;;;;;;;;;12.75;11.00;;;;;;;;4940002;28;47212;-94
2021/09/02 02:36:24;;;;;;;;;16.50;15.75;;;;;;;;4928073;28;48326;-90
2021/09/02 02:38:50;;;;;;;;;12.75;11.25;;;;;;;;4940885;28;46816;-88
2021/09/02 02:41:16;;;;;;;;;18.75;16.50;;;;;;;;4940973;28;47170;-89
2021/09/02 02:43:41;;;;;;;;;16.00;14.75;;;;;;;;4937055;28;46990;-90
2021/09/02 02:46:06;;;;;;;;;14.75;11.25;;;;;;;;4927544;28;47800;-89
2021/09/02 02:48:32;;;;;;;;;20.25;14.25;;;;;;;;4940233;28;46962;-89
2021/09/02 02:50:58;;;;;;;;;16.75;15.00;;;;;;;;4934415;28;46920;-90
2021/09/02 02:53:23;;;;;;;;;16.50;13.25;;;;;;;;4934672;28;46901;-89
2021/09/02 02:55:48;;;;;;;;;9.75;8.25;;;;;;;;4940944;28;46903;-90
2021/09/02 02:58:14;;;;;;;;;17.25;13.00;;;;;;;;4956865;28;46816;-89
2021/09/02 03:00:39;;;;;;;;;13.25;12.25;;;;;;;;4949348;28;46994;-89
2021/09/02 03:03:04;;;;;;;;;18.25;16.25;;;;;;;;4940677;28;46870;-90
2021/09/02 03:05:30;;;;;;;;;15.00;10.75;;;;;;;;4940205;28;47776;-90
2021/09/02 03:07:55;;;;;;;;;11.00;7.50;;;;;;;;4938125;28;47004;-89
2021/09/02 03:10:20;;;;;;;;;14.50;14.25;;;;;;;;4925968;28;47013;-90
2021/09/02 03:12:46;;;;;;;;;19.75;16.50;;;;;;;;4940210;28;46840;-90
2021/09/02 03:15:11;;;;;;;;;13.50;11.75;;;;;;;;4931156;28;46848;-90
2021/09/02 03:17:37;;;;;;;;;13.50;10.00;;;;;;;;4940539;28;46757;-90
2021/09/02 03:20:03;;;;;;;;;14.00;12.50;;;;;;;;4940428;28;46967;-90
2021/09/02 03:22:28;;;;;;;;;16.50;12.25;;;;;;;;4944812;28;47184;-90
2021/09/02 03:24:54;;;;;;;;;13.25;11.50;;;;;;;;4939648;28;46983;-90
2021/09/02 03:27:19;;;;;;;;;15.75;15.00;;;;;;;;4939705;28;47065;-90
2021/09/02 03:29:44;;;;;;;;;16.50;15.25;;;;;;;;4938701;28;48359;-90
2021/09/02 03:32:10;;;;;;;;;14.75;11.25;;;;;;;;4940714;28;46934;-90
2021/09/02 03:34:35;;;;;;;;;14.00;12.50;;;;;;;;4948936;28;47062;-90
2021/09/02 03:37:01;;;;;;;;;21.75;16.00;;;;;;;;4938383;28;47041;-90
2021/09/02 03:39:26;;;;;;;;;16.75;13.25;;;;;;;;4939884;28;47132;-90
2021/09/02 03:41:51;;;;;;;;;18.50;13.50;;;;;;;;4938464;28;47147;-90
2021/09/02 03:44:17;;;;;;;;;16.00;16.00;;;;;;;;4936801;28;47866;-89
2021/09/02 03:46:42;;;;;;;;;17.25;12.50;;;;;;;;4940189;28;47039;-89
2021/09/02 03:49:07;;;;;;;;;11.75;9.50;;;;;;;;4939874;28;46811;-89
2021/09/02 03:51:33;;;;;;;;;21.00;17.00;;;;;;;;4939812;28;48517;-89
2021/09/02 03:53:58;;;;;;;;;15.00;10.25;;;;;;;;4937712;28;48562;-89
2021/09/02 03:56:23;;;;;;;;;17.00;13.25;;;;;;;;4938894;28;47017;-89
2021/09/02 03:58:51;;;;;;;;;18.25;16.75;;;;;;;;4939470;28;47440;-90
2021/09/02 04:01:16;;;;;;;;;23.25;18.00;;;;;;;;4937982;28;46926;-89
2021/09/02 04:03:41;;;;;;;;;21.00;19.00;;;;;;;;4939615;28;46985;-90
2021/09/02 04:06:07;;;;;;;;;18.00;16.25;;;;;;;;4939507;28;46965;-89
2021/09/02 04:08:32;;;;;;;;;28.00;23.25;;;;;;;;4937743;28;47055;-89
2021/09/02 04:10:57;;;;;;;;;23.00;18.25;;;;;;;;4939614;28;47242;-90
2021/09/02 04:13:23;;;;;;;;;22.00;18.25;;;;;;;;4937753;28;47142;-89
2021/09/02 04:15:48;;;;;;;;;17.25;14.50;;;;;;;;4939644;28;46860;-89
2021/09/02 04:18:13;;;;;;;;;20.75;16.75;;;;;;;;4939323;28;47043;-89
2021/09/02 04:20:39;;;;;;;;;23.00;18.50;;;;;;;;4942161;28;46887;-90
2021/09/02 04:23:04;;;;;;;;;19.50;15.00;;;;;;;;4940840;28;47001;-89
2021/09/02 04:25:29;;;;;;;;;17.00;15.50;;;;;;;;4938943;28;46922;-89
2021/09/02 04:27:55;;;;;;;;;17.00;15.00;;;;;;;;4937825;28;46942;-90
2021/09/02 04:30:20;;;;;;;;;19.25;16.75;;;;;;;;4926849;28;47285;-91
2021/09/02 04:32:46;;;;;;;;;28.75;21.75;;;;;;;;4939690;28;46968;-90
2021/09/02 04:35:11;;;;;;;;;13.00;9.25;;;;;;;;4939960;28;46828;-90
2021/09/02 04:37:38;;;;;;;;;18.25;17.50;;;;;;;;4944074;28;46920;-89
2021/09/02 04:40:03;;;;;;;;;24.50;22.00;;;;;;;;4951892;28;47248;-88
2021/09/02 04:42:29;;;;;;;;;14.25;12.00;;;;;;;;4939165;28;47112;-88
2021/09/02 04:44:54;;;;;;;;;25.75;19.75;;;;;;;;4940963;28;47127;-90
2021/09/02 04:47:20;;;;;;;;;21.50;17.50;;;;;;;;4939124;28;47088;-90
2021/09/02 04:49:45;;;;;;;;;23.25;18.50;;;;;;;;4938555;28;47227;-91
2021/09/02 04:52:10;;;;;;;;;26.00;23.50;;;;;;;;4926143;28;47640;-90
2021/09/02 04:54:36;;;;;;;;;16.75;14.00;;;;;;;;4939276;28;46951;-90
2021/09/02 04:57:01;;;;;;;;;23.25;18.25;;;;;;;;4938458;28;47361;-91
2021/09/02 04:59:27;;;;;;;;;24.00;21.75;;;;;;;;4939304;28;47118;-90
2021/09/02 05:01:52;;;;;;;;;27.50;16.75;;;;;;;;4934107;28;47608;-89
2021/09/02 05:04:17;;;;;;;;;29.50;23.25;;;;;;;;4947618;28;47068;-90
2021/09/02 05:06:42;;;;;;;;;23.75;20.75;;;;;;;;4940261;28;47115;-90
2021/09/02 05:09:08;;;;;;;;;15.75;12.75;;;;;;;;4939651;28;46763;-90
2021/09/02 05:11:33;;;;;;;;;25.00;19.25;;;;;;;;4942069;28;46847;-90
2021/09/02 05:13:58;;;;;;;;;27.00;24.00;;;;;;;;4940933;28;47480;-90
2021/09/02 05:16:24;;;;;;;;;25.75;23.50;;;;;;;;4941895;28;46931;-89
2021/09/02 05:18:49;;;;;;;;;28.75;25.00;;;;;;;;4942465;28;46886;-90
2021/09/02 05:21:14;;;;;;;;;29.50;24.50;;;;;;;;4947340;28;47906;-90
2021/09/02 05:23:40;;;;;;;;;39.00;28.50;;;;;;;;4940893;28;47120;-89
2021/09/02 05:26:05;;;;;;;;;21.00;18.50;;;;;;;;4941811;28;47129;-89
2021/09/02 05:28:31;;;;;;;;;34.00;25.25;;;;;;;;4946043;28;46924;-89
2021/09/02 05:30:56;;;;;;;;;32.25;25.00;;;;;;;;4942669;28;48118;-89
2021/09/02 05:33:21;;;;;;;;;30.50;29.00;;;;;;;;4945253;28;47002;-89
2021/09/02 05:35:49;;;;;;;;;24.25;21.00;;;;;;;;4944943;28;47023;-90
2021/09/02 05:38:14;;;;;;;;;26.75;19.75;;;;;;;;4948983;28;46862;-90
2021/09/02 05:40:40;;;;;;;;;34.25;28.00;;;;;;;;4941380;28;47157;-88
2021/09/02 05:43:06;;;;;;;;;27.75;23.75;;;;;;;;4941356;28;46795;-89
2021/09/02 05:45:31;;;;;;;;;26.50;20.25;;;;;;;;4941459;28;46857;-88
2021/09/02 05:48:01;;;;;;;;;30.25;22.00;;;;;;;;4940194;28;46849;-89
2021/09/02 05:50:31;;;;;;;;;27.25;21.75;;;;;;;;4940530;28;47226;-92
2021/09/02 05:53:09;;;;;;;;;;;;;;;;;;;;;
2021/09/02 05:55:35;;;;;;;;;30.50;24.50;;;;;;;;4940405;28;73109;-89
2021/09/02 05:58:01;;;;;;;;;12.00;10.75;;;;;;;;4941414;28;47190;-88
2021/09/02 06:00:26;;;;;;;;;17.00;15.75;;;;;;;;4941438;28;47740;-85
2021/09/02 06:03:33;;;;;;;;;34.00;24.50;;;;;;;;4940557;28;47083;-86
2021/09/02 06:05:57;;;;;;;;;22.75;18.00;;;;;;;;4939456;28;46958;-92
2021/09/02 06:08:23;;;;;;;;;22.25;17.00;;;;;;;;4940146;28;47089;-92
2021/09/02 06:10:48;;;;;;;;;13.25;10.00;;;;;;;;4941360;28;47939;-92
2021/09/02 06:13:13;;;;;;;;;15.00;12.50;;;;;;;;4939905;28;46987;-91
2021/09/02 06:15:39;;;;;;;;;23.25;19.00;;;;;;;;4922759;28;46860;-92
2021/09/02 06:18:04;;;;;;;;;22.00;17.25;;;;;;;;4937994;28;47022;-91
2021/09/02 06:20:29;;;;;;;;;11.00;9.50;;;;;;;;4954380;28;49341;-90
2021/09/02 06:22:55;;;;;;;;;22.50;20.00;;;;;;;;4955660;28;46807;-92
2021/09/02 06:25:20;;;;;;;;;34.00;27.75;;;;;;;;4941682;28;47073;-91
2021/09/02 06:27:46;;;;;;;;;27.50;20.25;;;;;;;;4940007;28;46837;-91
2021/09/02 06:30:12;;;;;;;;;27.50;21.75;;;;;;;;4941287;28;46935;-91
2021/09/02 06:32:37;;;;;;;;;6.00;4.25;;;;;;;;4941130;28;46756;-91
2021/09/02 06:35:03;;;;;;;;;19.75;16.50;;;;;;;;4951872;28;47026;-92
2021/09/02 06:37:28;;;;;;;;;19.00;15.50;;;;;;;;4941318;28;46753;-91
2021/09/02 06:39:53;;;;;;;;;29.50;21.75;;;;;;;;4940778;28;47593;-90
2021/09/02 06:42:19;;;;;;;;;23.50;19.00;;;;;;;;4941048;28;46981;-91
2021/09/02 06:44:44;;;;;;;;;21.50;18.25;;;;;;;;4951054;28;47121;-91
2021/09/02 06:47:12;;;;;;;;;10.25;7.75;;;;;;;;4939906;28;47227;-91
2021/09/02 06:49:37;;;;;;;;;28.50;22.75;;;;;;;;4940804;28;47064;-92
2021/09/02 06:52:03;;;;;;;;;7.50;6.00;;;;;;;;4939777;28;47027;-92
2021/09/02 06:54:28;;;;;;;;;24.00;17.75;;;;;;;;4940789;28;47050;-92
2021/09/02 06:56:53;;;;;;;;;12.75;11.00;;;;;;;;4939734;28;46896;-91
2021/09/02 06:59:20;;;;;;;;;13.75;9.50;;;;;;;;4939348;28;49161;-92
2021/09/02 07:01:46;;;;;;;;;17.50;15.75;;;;;;;;4939440;28;47138;-92
2021/09/02 07:04:11;;;;;;;;;10.75;7.75;;;;;;;;4939211;28;47075;-91
2021/09/02 07:06:36;;;;;;;;;11.25;8.00;;;;;;;;4940893;28;47054;-92
2021/09/02 07:09:02;;;;;;;;;22.00;18.00;;;;;;;;4940410;28;46936;-91
2021/09/02 07:11:27;;;;;;;;;7.00;5.75;;;;;;;;4940333;28;46959;-92
2021/09/02 07:13:55;;;;;;;;;15.00;12.50;;;;;;;;4940546;28;46799;-91
2021/09/02 07:16:20;;;;;;;;;6.50;6.50;;;;;;;;4939630;28;47099;-92
2021/09/02 07:18:45;;;;;;;;;24.50;17.25;;;;;;;;4934810;28;49406;-91
2021/09/02 07:21:11;;;;;;;;;22.25;15.50;;;;;;;;4938678;28;46942;-92
2021/09/02 07:23:36;;;;;;;;;23.00;17.50;;;;;;;;4942504;28;46946;-92
2021/09/02 07:26:04;;;;;;;;;23.50;17.75;;;;;;;;4940462;28;47132;-92
2021/09/02 07:28:32;;;;;;;;;28.25;20.00;;;;;;;;4940069;28;47864;-92
2021/09/02 07:30:57;;;;;;;;;19.75;11.00;;;;;;;;4939114;28;47633;-92
2021/09/02 07:33:25;;;;;;;;;20.75;17.25;;;;;;;;4938968;28;47030;-92
2021/09/02 07:35:50;;;;;;;;;20.00;15.50;;;;;;;;4927984;28;47451;-93
2021/09/02 07:38:16;;;;;;;;;17.50;17.25;;;;;;;;4937339;28;48328;-92
2021/09/02 07:40:41;;;;;;;;;12.00;10.00;;;;;;;;4939961;28;47002;-91
2021/09/02 07:43:06;;;;;;;;;22.00;18.00;;;;;;;;4939727;28;46828;-91
2021/09/02 07:45:32;;;;;;;;;28.50;19.25;;;;;;;;4939913;28;47121;-92
2021/09/02 07:47:57;;;;;;;;;24.00;19.75;;;;;;;;4939086;28;47341;-92
2021/09/02 07:50:23;;;;;;;;;21.25;18.50;;;;;;;;4938661;28;47664;-92
2021/09/02 07:53:05;;;;;;;;;17.25;16.00;;;;;;;;4938996;28;46983;-92
2021/09/02 07:55:39;;;;;;;;;15.75;12.50;;;;;;;;4940095;28;46990;-93
2021/09/02 07:58:36;;;;;;;;;16.00;15.50;;;;;;;;4939606;28;49540;-94
2021/09/02 08:01:22;;;;;;;;;16.75;13.75;;;;;;;;4943247;28;46925;-93
2021/09/02 08:04:10;;;;;;;;;;;;;;;;;;;;;
2021/09/02 08:06:48;;;;;;;;;11.25;10.00;;;;;;;;4931446;28;67360;-92
2021/09/02 08:12:23;;;;;;;;;22.00;14.75;;;;;;;;4865494;29;47234;-94
2021/09/02 08:14:58;;;;;;;;;18.75;16.25;;;;;;;;4936291;28;47063;-94
2021/09/02 08:17:31;;;;;;;;;17.50;16.50;;;;;;;;4938141;28;47039;-93
2021/09/02 08:20:17;;;;;;;;;17.25;12.75;;;;;;;;4938956;28;46883;-94
2021/09/02 08:22:42;;;;;;;;;9.25;5.50;;;;;;;;4938923;28;47615;-94
2021/09/02 08:25:19;;;;;;;;;23.25;21.00;;;;;;;;4938437;28;46932;-94
2021/09/02 08:27:52;;;;;;;;;12.50;12.50;;;;;;;;4938938;28;48017;-95
2021/09/02 08:30:47;;;;;;;;;26.50;19.75;;;;;;;;4939674;28;48236;-95
2021/09/02 08:33:32;;;;;;;;;19.50;12.75;;;;;;;;4935824;28;47220;-94
2021/09/02 08:36:00;;;;;;;;;27.00;20.25;;;;;;;;4920495;28;46998;-95
2021/09/02 08:38:28;;;;;;;;;20.75;19.75;;;;;;;;4934308;28;46747;-96
2021/09/02 08:41:05;;;;;;;;;;;;;;;;;;;;;
2021/09/02 08:53:03;;;;;;;;;;;;;;;;;;;;;
2021/09/02 08:55:36;;;;;;;;;5.25;5.25;;;;;;;;4937059;28;75276;-94
2021/09/02 09:01:10;;;;;;;;;19.25;16.00;;;;;;;;4913131;28;46899;-93
2021/09/02 09:04:19;;;;;;;;;27.25;20.75;;;;;;;;4898340;29;48459;-94
2021/09/02 09:06:59;;;;;;;;;;;;;;;;;;;;;
2021/09/02 09:09:42;;;;;;;;;;;;;;;;;;;;;
2021/09/02 09:12:28;;;;;;;;;2.75;2.75;;;;;;;;4925736;28;68666;-94
2021/09/02 10:13:17;;;;;;;;;11.00;10.75;;;;;;;;5234418;23;47018;-90
2021/09/02 10:16:01;;;;;;;;;;;;;;;;;;;;;
2021/09/02 10:18:38;;;;;;;;;;;;;;;;;;;;;
2021/09/02 10:21:37;;;;;;;;;;;;;;;;;;;;;
2021/09/02 10:24:41;;;;;;;;;;;;;;;;;;;;;
2021/09/02 10:30:24;;;;;;;;;12.00;11.00;;;;;;;;4941223;28;47161;-90
2021/09/02 10:35:57;;;;;;;;;10.00;7.25;;;;;;;;4938340;28;47161;-90
2021/09/02 10:39:31;;;;;;;;;;;;;;;;;;;;;
2021/09/02 10:42:19;;;;;;;;;;;;;;;;;;;;;
2021/09/02 10:51:53;;;;;;;;;;;;;;;;;;;;;
2021/09/02 10:58:03;;;;;;;;;;;;;;;;;;;;;
2021/09/02 11:32:28;;;;;;;;;11.25;10.75;;;;;;;;4753776;29;47633;-90
